createdAt,value
2022-08-16T00:00:03.614Z,1.1
2022-08-16T00:05:00.384Z,1.1
2022-08-16T00:10:00.287Z,1.1
2022-08-16T00:15:00.195Z,1.1
2022-08-16T00:20:00.212Z,1.1
2022-08-16T00:25:00.190Z,1.1
2022-08-16T00:30:00.769Z,1.1
2022-08-16T00:35:00.700Z,1.1
2022-08-16T00:40:00.281Z,1.1
2022-08-16T00:45:00.181Z,1.1
2022-08-16T00:50:00.237Z,1.1
2022-08-16T00:55:00.192Z,1.1
2022-08-16T01:00:00.187Z,1.1
2022-08-16T01:05:09.107Z,1.1
2022-08-16T01:10:00.185Z,1.1
2022-08-16T01:15:00.181Z,1.1
2022-08-16T01:20:00.602Z,1.1
2022-08-16T01:25:00.343Z,1.1
2022-08-16T01:30:00.360Z,1.1
2022-08-16T01:35:00.296Z,1.1
2022-08-16T01:40:00.343Z,1.1
2022-08-16T01:45:00.201Z,1.1
2022-08-16T01:50:42.246Z,1.1
2022-08-16T01:55:00.203Z,1.1
2022-08-16T02:00:00.195Z,1.1
2022-08-16T02:05:01.214Z,1.1
2022-08-16T02:10:01.981Z,1.1
2022-08-16T02:15:00.177Z,1.1
2022-08-16T02:20:00.890Z,1.1
2022-08-16T02:25:00.189Z,1.1
2022-08-16T02:30:05.172Z,1.1
2022-08-16T02:35:00.183Z,1.1
2022-08-16T02:40:00.270Z,1.1
2022-08-16T02:45:00.194Z,1.1
2022-08-16T02:50:52.427Z,1.1
2022-08-16T02:55:00.184Z,1.1
2022-08-16T03:00:01.163Z,1.1
2022-08-16T03:05:00.193Z,1.1
2022-08-16T03:10:00.822Z,1.1
2022-08-16T03:15:00.179Z,1.1
2022-08-16T03:20:02.692Z,1.1
2022-08-16T03:25:00.906Z,1.1
2022-08-16T03:30:00.194Z,1.1
2022-08-16T03:35:00.180Z,1.1
2022-08-16T03:40:03.148Z,1.1
2022-08-16T03:45:03.351Z,1.1
2022-08-16T03:50:00.199Z,1.1
2022-08-16T03:55:00.175Z,1.5
2022-08-16T04:00:00.199Z,3.6
2022-08-16T04:05:00.183Z,8.4
2022-08-16T04:10:00.188Z,17.9
2022-08-16T04:15:00.185Z,35.3
2022-08-16T04:20:00.170Z,59.7
2022-08-16T04:25:00.192Z,94.1
2022-08-16T04:30:02.839Z,136.3
2022-08-16T04:35:03.444Z,183.8
2022-08-16T04:40:00.262Z,233.5
2022-08-16T04:45:01.955Z,286.1
2022-08-16T04:50:00.219Z,334.3
2022-08-16T04:55:00.173Z,381.3
2022-08-16T05:00:32.829Z,424.6
2022-08-16T05:05:00.180Z,472.9
2022-08-16T05:10:00.187Z,514.1
2022-08-16T05:15:01.798Z,552.4
2022-08-16T05:20:00.179Z,593.4
2022-08-16T05:25:00.191Z,630
2022-08-16T05:30:04.865Z,668.8
2022-08-16T05:35:00.177Z,710.1
2022-08-16T05:40:00.295Z,753.8
2022-08-16T05:45:00.177Z,790.8
2022-08-16T05:50:00.171Z,829.5
2022-08-16T05:55:01.615Z,859.8
2022-08-16T06:00:01.833Z,891.2
2022-08-16T06:05:00.182Z,923.7
2022-08-16T06:10:00.386Z,957.5
2022-08-16T06:15:00.193Z,980.7
2022-08-16T06:20:00.180Z,1028.7
2022-08-16T06:25:00.488Z,1053.6
2022-08-16T06:30:00.190Z,1079.1
2022-08-16T06:35:02.890Z,1105.3
2022-08-16T06:40:00.331Z,1145.6
2022-08-16T06:45:00.194Z,1159.4
2022-08-16T06:50:00.189Z,1187.5
2022-08-16T06:55:00.175Z,1216.2
2022-08-16T07:00:00.194Z,1245.7
2022-08-16T07:05:00.177Z,1260.7
2022-08-16T07:10:00.186Z,1291.2
2022-08-16T07:15:00.849Z,1306.7
2022-08-16T07:20:03.235Z,1370.7
2022-08-16T07:25:00.207Z,1403.9
2022-08-16T07:30:00.205Z,1455.2
2022-08-16T07:35:00.236Z,1508.3
2022-08-16T07:40:00.359Z,1620.5
2022-08-16T07:45:00.340Z,1826.4
2022-08-16T07:50:00.299Z,2009.8
2022-08-16T07:55:00.322Z,2185.2
2022-08-16T08:00:00.238Z,2347.8
2022-08-16T08:05:00.175Z,2462.8
2022-08-16T08:10:00.180Z,2583.5
2022-08-16T08:15:00.189Z,2710.1
2022-08-16T08:20:00.176Z,2742.6
2022-08-16T08:25:03.640Z,2775.6
2022-08-16T08:30:52.391Z,2842.8
2022-08-16T08:35:03.896Z,2842.8
2022-08-16T08:40:00.244Z,2842.8
2022-08-16T08:45:00.180Z,2911.7
2022-08-16T08:50:00.175Z,2877.1
2022-08-16T08:55:00.190Z,2911.7
2022-08-16T09:00:00.207Z,2946.7
2022-08-16T09:05:00.176Z,2946.7
2022-08-16T09:10:06.129Z,3018
2022-08-16T09:15:00.178Z,3018
2022-08-16T09:20:02.838Z,3018
2022-08-16T09:25:11.163Z,3018
2022-08-16T09:30:02.638Z,3018
2022-08-16T09:35:00.215Z,3054.3
2022-08-16T09:40:00.599Z,3091.1
2022-08-16T09:45:11.470Z,3091.1
2022-08-16T09:50:00.184Z,3128.2
2022-08-16T09:55:00.189Z,3165.8
2022-08-16T10:00:00.188Z,3242.6
2022-08-16T10:05:00.262Z,3165.8
2022-08-16T10:10:00.194Z,3204.1
2022-08-16T10:15:00.199Z,3242.6
2022-08-16T10:20:00.176Z,3321.1
2022-08-16T10:25:00.367Z,3321.1
2022-08-16T10:30:06.431Z,3321.1
2022-08-16T10:35:00.183Z,3361
2022-08-16T10:40:00.287Z,3401.4
2022-08-16T10:45:00.175Z,3442.3
2022-08-16T10:50:00.194Z,3525.6
2022-08-16T10:55:40.747Z,3568
2022-08-16T11:00:01.307Z,3611.1
2022-08-16T11:05:09.025Z,3788
2022-08-16T11:10:19.830Z,3742.9
2022-08-16T11:15:17.069Z,4118.8
2022-08-16T11:20:01.194Z,4320.5
2022-08-16T11:25:16.256Z,4320.5
2022-08-16T11:30:00.182Z,4532.1
2022-08-16T11:35:10.728Z,4069.8
2022-08-16T11:40:00.372Z,4320.5
2022-08-16T11:45:00.254Z,4869.3
2022-08-16T11:50:00.268Z,4642
2022-08-16T11:55:00.565Z,5294.6
2022-08-16T12:00:00.397Z,4869.3
2022-08-16T12:05:00.885Z,4021.3
2022-08-16T12:10:00.183Z,3525.6
2022-08-16T12:15:00.597Z,5688.3
2022-08-16T12:20:00.228Z,2552.8
2022-08-16T12:25:00.226Z,2710.1
2022-08-16T12:30:00.197Z,4532.1
2022-08-16T12:35:00.183Z,4532.1
2022-08-16T12:40:00.400Z,4869.3
2022-08-16T12:45:00.205Z,4320.5
2022-08-16T12:50:00.194Z,4118.8
2022-08-16T12:55:00.205Z,3742.9
2022-08-16T13:00:00.180Z,4168.3
2022-08-16T13:05:00.186Z,4069.8
2022-08-16T13:10:02.504Z,4168.3
2022-08-16T13:15:00.191Z,4320.5
2022-08-16T13:20:09.056Z,4118.8
2022-08-16T13:25:00.191Z,4021.3
2022-08-16T13:30:00.211Z,4478.2
2022-08-16T13:35:01.094Z,3742.9
2022-08-16T13:40:00.317Z,3654.5
2022-08-16T13:45:00.188Z,3654.5
2022-08-16T13:50:00.181Z,3611.1
2022-08-16T13:55:00.177Z,3654.5
2022-08-16T14:00:00.181Z,3879.6
2022-08-16T14:05:05.173Z,3833.5
2022-08-16T14:10:00.232Z,3568
2022-08-16T14:15:00.218Z,3483.7
2022-08-16T14:20:00.245Z,4425
2022-08-16T14:25:00.190Z,5047.1
2022-08-16T14:30:00.194Z,4069.8
2022-08-16T14:35:00.205Z,3128.2
2022-08-16T14:40:00.397Z,2982.2
2022-08-16T14:45:00.390Z,3361
2022-08-16T14:50:00.181Z,2946.7
2022-08-16T14:55:00.205Z,3054.3
2022-08-16T15:00:05.830Z,3018
2022-08-16T15:05:00.192Z,3204.1
2022-08-16T15:10:02.187Z,2946.7
2022-08-16T15:15:00.192Z,2809
2022-08-16T15:20:00.180Z,2775.6
2022-08-16T15:25:00.197Z,2742.6
2022-08-16T15:30:00.214Z,2677.9
2022-08-16T15:35:03.558Z,2677.9
2022-08-16T15:40:00.272Z,2742.6
2022-08-16T15:45:00.182Z,2775.6
2022-08-16T15:50:00.186Z,2710.1
2022-08-16T15:55:00.316Z,2677.9
2022-08-16T16:00:04.971Z,2677.9
2022-08-16T16:05:00.592Z,2677.9
2022-08-16T16:10:00.353Z,2614.6
2022-08-16T16:15:00.295Z,2462.8
2022-08-16T16:20:00.360Z,2292.3
2022-08-16T16:25:00.184Z,2159.2
2022-08-16T16:30:01.876Z,2058.4
2022-08-16T16:35:00.236Z,2009.8
2022-08-16T16:40:00.380Z,1938.9
2022-08-16T16:45:01.636Z,1985.8
2022-08-16T16:50:00.174Z,1848.4
2022-08-16T16:55:00.188Z,1783.3
2022-08-16T17:00:00.195Z,1762
2022-08-16T17:05:00.183Z,1848.4
2022-08-16T17:10:00.174Z,1741
2022-08-16T17:15:00.194Z,1526.4
2022-08-16T17:20:00.205Z,1472.7
2022-08-16T17:25:00.181Z,1387.2
2022-08-16T17:30:00.259Z,1322.4
2022-08-16T17:35:00.359Z,1187.5
2022-08-16T17:40:19.241Z,1105.3
2022-08-16T17:45:00.230Z,1004.4
2022-08-16T17:50:00.173Z,901.9
2022-08-16T17:55:00.178Z,809.9
2022-08-16T18:00:00.176Z,701.6
2022-08-16T18:05:00.177Z,579.4
2022-08-16T18:10:00.188Z,467.2
2022-08-16T18:15:00.467Z,367.8
2022-08-16T18:20:00.177Z,266.3
2022-08-16T18:25:00.185Z,181.6
2022-08-16T18:30:00.175Z,130
2022-08-16T18:35:00.188Z,89.7
2022-08-16T18:40:00.401Z,59.7
2022-08-16T18:45:00.182Z,36.6
2022-08-16T18:50:00.180Z,19.6
2022-08-16T18:55:13.782Z,8.6
2022-08-16T19:00:00.203Z,3.3
2022-08-16T19:05:00.211Z,1.4
2022-08-16T19:10:00.209Z,1.1
2022-08-16T19:15:00.177Z,1.1
2022-08-16T19:20:00.210Z,1.1
2022-08-16T19:25:00.174Z,1.1
2022-08-16T19:30:00.183Z,1.1
2022-08-16T19:35:00.183Z,1.1
2022-08-16T19:40:00.370Z,1.1
2022-08-16T19:45:00.179Z,1.1
2022-08-16T19:50:00.217Z,1.1
2022-08-16T19:55:00.205Z,1.1
2022-08-16T20:00:00.226Z,1.1
2022-08-16T20:05:00.188Z,1.1
2022-08-16T20:10:00.200Z,1.1
2022-08-16T20:15:00.187Z,1.1
2022-08-16T20:20:00.193Z,1.1
2022-08-16T20:25:00.189Z,1.1
2022-08-16T20:30:00.173Z,1.1
2022-08-16T20:35:00.177Z,1.1
2022-08-16T20:40:28.696Z,1.1
2022-08-16T20:45:00.186Z,1.1
2022-08-16T20:50:00.180Z,1.1
2022-08-16T20:55:00.184Z,1.1
2022-08-16T21:00:00.190Z,1.1
2022-08-16T21:05:00.176Z,1.1
2022-08-16T21:10:00.182Z,1.1
2022-08-16T21:15:00.182Z,1.1
2022-08-16T21:20:00.177Z,1.1
2022-08-16T21:25:00.202Z,1.1
2022-08-16T21:30:00.187Z,1.1
2022-08-16T21:35:00.198Z,1.1
2022-08-16T21:40:00.288Z,1.1
2022-08-16T21:45:00.188Z,1.1
2022-08-16T21:50:00.167Z,1.1
2022-08-16T21:55:00.275Z,1.1
2022-08-16T22:00:00.204Z,1.1
2022-08-16T22:05:00.173Z,1.1
2022-08-16T22:10:00.196Z,1.1
2022-08-16T22:15:00.198Z,1.1
2022-08-16T22:20:00.197Z,1.1
2022-08-16T22:25:00.242Z,1.1
2022-08-16T22:30:00.286Z,1.1
2022-08-16T22:35:12.373Z,1.1
2022-08-16T22:40:00.355Z,1.1
2022-08-16T22:45:00.186Z,1.1
2022-08-16T22:50:00.186Z,1.1
2022-08-16T22:55:00.179Z,1.1
2022-08-16T23:00:00.187Z,1.1
2022-08-16T23:05:00.188Z,1.1
2022-08-16T23:10:00.206Z,1.1
2022-08-16T23:15:00.174Z,1.1
2022-08-16T23:20:00.207Z,1.1
2022-08-16T23:25:00.173Z,1.1
2022-08-16T23:30:00.230Z,1.1
2022-08-16T23:35:00.182Z,1.1
2022-08-16T23:40:00.297Z,1.1
2022-08-16T23:45:00.183Z,1.1
2022-08-16T23:50:03.861Z,1.1
2022-08-16T23:55:00.188Z,1.1
